createdAt,value
2022-12-31T00:00:00.865Z,25.17
2022-12-31T00:00:11.029Z,25.17
2022-12-31T00:00:21.086Z,25.17
2022-12-31T00:00:31.137Z,25.18
2022-12-31T00:00:41.414Z,25.17
2022-12-31T00:00:51.387Z,25.19
2022-12-31T00:01:01.411Z,25.19
2022-12-31T00:01:11.417Z,25.19
2022-12-31T00:01:21.427Z,25.19
2022-12-31T00:01:31.431Z,25.20
2022-12-31T00:01:41.444Z,25.19
2022-12-31T00:01:51.496Z,25.20
2022-12-31T00:02:01.647Z,25.21
2022-12-31T00:02:11.694Z,25.20
2022-12-31T00:02:21.723Z,25.20
2022-12-31T00:02:31.818Z,25.21
2022-12-31T00:02:41.923Z,25.21
2022-12-31T00:02:51.843Z,25.22
2022-12-31T00:03:01.936Z,25.21
2022-12-31T00:03:11.991Z,25.22
2022-12-31T00:03:22.195Z,25.21
2022-12-31T00:03:32.036Z,25.22
2022-12-31T00:03:42.042Z,25.22
2022-12-31T00:03:52.045Z,25.22
2022-12-31T00:04:02.046Z,25.23
2022-12-31T00:04:12.063Z,25.23
2022-12-31T00:04:22.065Z,25.24
2022-12-31T00:04:32.081Z,25.23
2022-12-31T00:04:42.077Z,25.24
2022-12-31T00:04:52.113Z,25.24
2022-12-31T00:05:02.144Z,25.25
2022-12-31T00:05:12.156Z,25.25
2022-12-31T00:05:22.157Z,25.25
2022-12-31T00:05:32.171Z,25.25
2022-12-31T00:05:42.188Z,25.26
2022-12-31T00:05:52.202Z,25.25
2022-12-31T00:06:02.237Z,25.26
2022-12-31T00:06:12.236Z,25.26
2022-12-31T00:06:22.241Z,25.26
2022-12-31T00:06:32.258Z,25.27
2022-12-31T00:06:42.262Z,25.27
2022-12-31T00:06:52.268Z,25.28
2022-12-31T00:07:02.275Z,25.28
2022-12-31T00:07:12.280Z,25.28
2022-12-31T00:07:22.411Z,25.29
2022-12-31T00:07:51.417Z,25.11
2022-12-31T00:08:01.417Z,25.15
2022-12-31T00:08:11.532Z,25.20
2022-12-31T00:08:21.794Z,25.23
2022-12-31T00:08:31.804Z,25.24
2022-12-31T00:08:41.802Z,25.25
2022-12-31T00:08:52.181Z,25.27
2022-12-31T00:09:02.184Z,25.26
2022-12-31T00:09:12.297Z,25.27
2022-12-31T00:09:22.551Z,25.28
2022-12-31T00:09:32.680Z,25.29
2022-12-31T00:09:42.679Z,25.30
2022-12-31T00:09:52.937Z,25.30
2022-12-31T00:10:02.941Z,25.31
2022-12-31T00:10:12.945Z,25.31
2022-12-31T00:10:22.961Z,25.31
2022-12-31T00:10:32.968Z,25.32
2022-12-31T00:10:42.974Z,25.33
2022-12-31T00:10:52.984Z,25.33
2022-12-31T00:11:02.995Z,25.34
2022-12-31T00:11:13.026Z,25.34
2022-12-31T00:11:23.015Z,25.34
2022-12-31T00:11:33.038Z,25.35
2022-12-31T00:11:43.040Z,25.35
2022-12-31T00:11:53.043Z,25.35
2022-12-31T00:12:03.058Z,25.35
2022-12-31T00:12:13.089Z,25.36
2022-12-31T00:12:23.089Z,25.37
2022-12-31T00:12:33.207Z,25.37
2022-12-31T00:12:43.462Z,25.37
2022-12-31T00:12:53.604Z,25.38
2022-12-31T00:13:03.613Z,25.39
2022-12-31T00:13:13.879Z,25.38
2022-12-31T00:13:23.916Z,25.38
2022-12-31T00:13:33.945Z,25.39
2022-12-31T00:13:43.959Z,25.40
2022-12-31T00:13:53.965Z,25.40
2022-12-31T00:14:03.996Z,25.41
2022-12-31T00:14:13.965Z,25.40
2022-12-31T00:14:23.977Z,25.41
2022-12-31T00:14:33.979Z,25.42
2022-12-31T00:14:43.996Z,25.42
2022-12-31T00:14:53.985Z,25.43
2022-12-31T00:15:04.001Z,25.43
2022-12-31T00:15:14.004Z,25.44
2022-12-31T00:15:24.019Z,25.44
2022-12-31T00:15:34.030Z,25.44
2022-12-31T00:15:44.041Z,25.45
2022-12-31T00:15:54.097Z,25.46
2022-12-31T00:16:10.059Z,25.46
2022-12-31T00:16:14.471Z,25.43
2022-12-31T00:16:24.566Z,25.45
2022-12-31T00:16:34.591Z,25.45
2022-12-31T00:16:44.605Z,25.46
2022-12-31T00:16:54.714Z,25.46
2022-12-31T00:17:04.964Z,25.47
2022-12-31T00:17:14.955Z,25.47
2022-12-31T00:17:24.953Z,25.48
2022-12-31T00:17:34.984Z,25.49
2022-12-31T00:17:44.995Z,25.49
2022-12-31T00:17:55.007Z,25.49
2022-12-31T00:18:05.010Z,25.50
2022-12-31T00:18:15.031Z,25.50
2022-12-31T00:18:25.031Z,25.50
2022-12-31T00:18:35.045Z,25.51
2022-12-31T00:18:45.061Z,25.51
2022-12-31T00:18:55.066Z,25.52
2022-12-31T00:19:05.077Z,25.52
2022-12-31T00:19:15.081Z,25.52
2022-12-31T00:19:25.092Z,25.52
2022-12-31T00:19:35.140Z,25.53
2022-12-31T00:19:45.138Z,25.53
2022-12-31T00:19:55.190Z,25.53
2022-12-31T00:20:05.197Z,25.53
2022-12-31T00:20:15.208Z,25.54
2022-12-31T00:20:25.333Z,25.54
2022-12-31T00:20:35.346Z,25.55
2022-12-31T00:20:45.358Z,25.55
2022-12-31T00:20:55.357Z,25.55
2022-12-31T00:21:05.624Z,25.55
2022-12-31T00:21:15.642Z,25.55
2022-12-31T00:21:25.779Z,25.56
2022-12-31T00:21:36.050Z,25.56
2022-12-31T00:21:46.184Z,25.57
2022-12-31T00:21:56.181Z,25.57
2022-12-31T00:22:06.457Z,25.58
2022-12-31T00:22:16.459Z,25.59
2022-12-31T00:22:26.455Z,25.58
2022-12-31T00:22:36.456Z,25.58
2022-12-31T00:22:46.459Z,25.59
2022-12-31T00:22:56.462Z,25.58
2022-12-31T00:23:06.479Z,25.58
2022-12-31T00:23:16.486Z,25.58
2022-12-31T00:23:26.499Z,25.58
2022-12-31T00:23:36.500Z,25.58
2022-12-31T00:23:46.895Z,25.59
2022-12-31T00:23:56.881Z,25.58
2022-12-31T00:24:06.907Z,25.59
2022-12-31T00:24:16.904Z,25.60
2022-12-31T00:24:26.917Z,25.60
2022-12-31T00:24:36.917Z,25.61
2022-12-31T00:24:46.918Z,25.61
2022-12-31T00:24:56.940Z,25.61
2022-12-31T00:25:06.938Z,25.63
2022-12-31T00:25:16.938Z,25.63
2022-12-31T00:25:26.945Z,25.64
2022-12-31T00:25:36.963Z,25.63
2022-12-31T00:25:47.078Z,25.63
2022-12-31T00:25:57.098Z,25.64
2022-12-31T00:26:07.105Z,25.64
2022-12-31T00:26:17.103Z,25.64
2022-12-31T00:26:27.227Z,25.64
2022-12-31T00:26:37.366Z,25.66
2022-12-31T00:26:47.362Z,25.65
2022-12-31T00:26:57.378Z,25.66
2022-12-31T00:27:07.378Z,25.66
2022-12-31T00:27:17.383Z,25.67
2022-12-31T00:27:27.388Z,25.67
2022-12-31T00:27:37.384Z,25.67
2022-12-31T00:27:47.567Z,25.68
2022-12-31T00:27:57.555Z,25.68
2022-12-31T00:28:07.678Z,25.69
2022-12-31T00:28:17.820Z,25.69
2022-12-31T00:28:27.809Z,25.69
2022-12-31T00:28:37.805Z,25.69
2022-12-31T00:28:47.814Z,25.70
2022-12-31T00:28:57.841Z,25.71
2022-12-31T00:29:07.842Z,25.71
2022-12-31T00:29:17.850Z,25.70
2022-12-31T00:29:27.857Z,25.69
2022-12-31T00:29:37.870Z,25.70
2022-12-31T00:29:47.894Z,25.70
2022-12-31T00:30:04.115Z,25.70
2022-12-31T00:30:08.007Z,25.65
2022-12-31T00:30:18.006Z,25.67
2022-12-31T00:30:28.012Z,25.69
2022-12-31T00:30:38.067Z,25.71
2022-12-31T00:30:48.073Z,25.72
2022-12-31T00:30:58.099Z,25.72
2022-12-31T00:31:08.299Z,25.72
2022-12-31T00:31:18.269Z,25.72
2022-12-31T00:31:28.468Z,25.73
2022-12-31T00:31:38.483Z,25.73
2022-12-31T00:31:48.541Z,25.74
2022-12-31T00:31:58.534Z,25.73
2022-12-31T00:32:08.544Z,25.74
2022-12-31T00:32:18.552Z,25.73
2022-12-31T00:32:28.551Z,25.73
2022-12-31T00:32:38.553Z,25.73
2022-12-31T00:32:48.682Z,25.73
2022-12-31T00:32:58.693Z,25.73
2022-12-31T00:33:08.952Z,25.73
2022-12-31T00:33:18.991Z,25.73
2022-12-31T00:33:28.994Z,25.73
2022-12-31T00:33:38.990Z,25.73
2022-12-31T00:33:49.119Z,25.74
2022-12-31T00:33:59.116Z,25.74
2022-12-31T00:34:09.232Z,25.74
2022-12-31T00:34:19.252Z,25.75
2022-12-31T00:34:29.365Z,25.74
2022-12-31T00:34:39.395Z,25.75
2022-12-31T00:34:49.403Z,25.75
2022-12-31T00:34:59.439Z,25.75
2022-12-31T00:35:09.458Z,25.76
2022-12-31T00:35:19.437Z,25.76
2022-12-31T00:35:29.570Z,25.77
2022-12-31T00:35:39.562Z,25.76
2022-12-31T00:35:49.592Z,25.76
2022-12-31T00:35:59.596Z,25.77
2022-12-31T00:36:09.614Z,25.77
2022-12-31T00:36:19.605Z,25.77
2022-12-31T00:36:29.860Z,25.77
2022-12-31T00:36:39.892Z,25.76
2022-12-31T00:36:49.870Z,25.78
2022-12-31T00:36:59.878Z,25.78
2022-12-31T00:37:10.007Z,25.78
2022-12-31T00:37:20.019Z,25.78
2022-12-31T00:37:30.029Z,25.78
2022-12-31T00:37:40.033Z,25.79
2022-12-31T00:37:50.047Z,25.79
2022-12-31T00:38:00.051Z,25.79
2022-12-31T00:38:10.323Z,25.79
2022-12-31T00:38:20.323Z,25.79
2022-12-31T00:38:30.322Z,25.79
2022-12-31T00:38:40.328Z,25.79
2022-12-31T00:38:50.337Z,25.79
2022-12-31T00:39:00.369Z,25.79
2022-12-31T00:39:10.363Z,25.79
2022-12-31T00:39:20.388Z,25.79
2022-12-31T00:39:30.391Z,25.79
2022-12-31T00:39:40.392Z,25.79
2022-12-31T00:39:50.402Z,25.80
2022-12-31T00:40:00.434Z,25.80
2022-12-31T00:40:10.423Z,25.80
2022-12-31T00:40:20.431Z,25.80
2022-12-31T00:40:30.447Z,25.81
2022-12-31T00:40:40.451Z,25.82
2022-12-31T00:40:50.568Z,25.81
2022-12-31T00:41:00.820Z,25.82
2022-12-31T00:41:10.944Z,25.82
2022-12-31T00:41:20.958Z,25.82
2022-12-31T00:41:31.223Z,25.82
2022-12-31T00:41:41.231Z,25.81
2022-12-31T00:41:51.223Z,25.82
2022-12-31T00:42:01.231Z,25.82
2022-12-31T00:42:11.237Z,25.82
2022-12-31T00:42:21.247Z,25.83
2022-12-31T00:42:31.257Z,25.83
2022-12-31T00:42:41.267Z,25.83
2022-12-31T00:42:51.399Z,25.82
2022-12-31T00:43:01.423Z,25.83
2022-12-31T00:43:11.668Z,25.84
2022-12-31T00:43:21.674Z,25.83
2022-12-31T00:43:31.691Z,25.84
2022-12-31T00:43:41.690Z,25.84
2022-12-31T00:43:51.712Z,25.84
2022-12-31T00:44:01.739Z,25.85
2022-12-31T00:44:11.723Z,25.85
2022-12-31T00:44:21.821Z,25.86
2022-12-31T00:44:31.817Z,25.85
2022-12-31T00:44:41.812Z,25.85
2022-12-31T00:44:52.223Z,25.86
2022-12-31T00:45:02.223Z,25.86
2022-12-31T00:45:12.201Z,25.86
2022-12-31T00:45:22.201Z,25.86
2022-12-31T00:45:32.206Z,25.87
2022-12-31T00:45:42.210Z,25.87
2022-12-31T00:45:52.251Z,25.86
2022-12-31T00:46:02.339Z,25.87
2022-12-31T00:46:12.346Z,25.87
2022-12-31T00:46:22.370Z,25.87
2022-12-31T00:46:32.468Z,25.86
2022-12-31T00:47:01.326Z,25.69
2022-12-31T00:47:11.462Z,25.73
2022-12-31T00:47:21.474Z,25.76
2022-12-31T00:47:31.714Z,25.79
2022-12-31T00:47:41.721Z,25.80
2022-12-31T00:47:51.841Z,25.81
2022-12-31T00:48:02.217Z,25.82
2022-12-31T00:48:12.222Z,25.82
2022-12-31T00:48:22.224Z,25.83
2022-12-31T00:48:32.475Z,25.84
2022-12-31T00:48:42.486Z,25.84
2022-12-31T00:48:52.497Z,25.86
2022-12-31T00:49:02.538Z,25.85
2022-12-31T00:49:12.545Z,25.86
2022-12-31T00:49:22.531Z,25.86
2022-12-31T00:49:32.540Z,25.86
2022-12-31T00:49:42.546Z,25.86
2022-12-31T00:49:52.569Z,25.87
2022-12-31T00:50:02.563Z,25.87
2022-12-31T00:50:12.964Z,25.87
2022-12-31T00:50:22.964Z,25.88
2022-12-31T00:50:32.983Z,25.88
2022-12-31T00:50:42.981Z,25.88
2022-12-31T00:50:53.115Z,25.88
2022-12-31T00:51:03.129Z,25.89
2022-12-31T00:51:13.139Z,25.88
2022-12-31T00:51:23.143Z,25.89
2022-12-31T00:51:33.267Z,25.89
2022-12-31T00:51:43.274Z,25.89
2022-12-31T00:51:53.411Z,25.89
2022-12-31T00:52:03.422Z,25.89
2022-12-31T00:52:13.434Z,25.89
2022-12-31T00:52:23.444Z,25.90
2022-12-31T00:52:33.454Z,25.90
2022-12-31T00:52:43.467Z,25.90
2022-12-31T00:52:53.584Z,25.90
2022-12-31T00:53:03.584Z,25.91
2022-12-31T00:53:13.596Z,25.91
2022-12-31T00:53:23.603Z,25.91
2022-12-31T00:53:33.861Z,25.91
2022-12-31T00:53:43.863Z,25.91
2022-12-31T00:53:53.977Z,25.91
2022-12-31T00:54:04.247Z,25.92
2022-12-31T00:54:14.249Z,25.93
2022-12-31T00:54:24.260Z,25.93
2022-12-31T00:54:34.255Z,25.93
2022-12-31T00:54:44.266Z,25.93
2022-12-31T00:54:54.392Z,25.94
2022-12-31T00:55:04.410Z,25.94
2022-12-31T00:55:14.418Z,25.94
2022-12-31T00:55:24.426Z,25.94
2022-12-31T00:55:34.544Z,25.95
2022-12-31T00:55:44.677Z,25.96
2022-12-31T00:55:54.785Z,25.96
2022-12-31T00:56:04.817Z,25.96
2022-12-31T00:56:15.042Z,25.97
2022-12-31T00:56:25.068Z,25.97
2022-12-31T00:56:35.055Z,25.97
2022-12-31T00:56:45.055Z,25.97
2022-12-31T00:56:55.061Z,25.98
2022-12-31T00:57:05.070Z,25.97
2022-12-31T00:57:15.188Z,25.98
2022-12-31T00:57:25.203Z,25.97
2022-12-31T00:57:35.239Z,25.97
2022-12-31T00:57:45.240Z,25.97
2022-12-31T00:57:55.492Z,25.97
2022-12-31T00:58:05.489Z,25.96
2022-12-31T00:58:15.642Z,25.96
2022-12-31T00:58:25.909Z,25.96
2022-12-31T00:58:36.029Z,25.96
2022-12-31T00:58:46.020Z,25.96
2022-12-31T00:58:56.287Z,25.96
2022-12-31T00:59:06.278Z,25.96
2022-12-31T00:59:16.400Z,25.96
2022-12-31T00:59:26.672Z,25.95
2022-12-31T00:59:36.670Z,25.96
2022-12-31T00:59:46.680Z,25.95
2022-12-31T00:59:56.690Z,25.95
2022-12-31T01:00:06.702Z,25.96
2022-12-31T01:00:16.710Z,25.97
2022-12-31T01:00:26.718Z,25.97
2022-12-31T01:00:36.729Z,25.97
2022-12-31T01:00:46.737Z,25.97
2022-12-31T01:00:56.770Z,25.97
2022-12-31T01:01:06.888Z,25.97
2022-12-31T01:01:17.017Z,25.97
2022-12-31T01:01:27.150Z,25.97
2022-12-31T01:01:37.062Z,25.97
2022-12-31T01:01:47.262Z,25.98
2022-12-31T01:01:57.426Z,25.99
2022-12-31T01:02:07.604Z,25.98
2022-12-31T01:02:17.869Z,25.99
2022-12-31T01:02:27.935Z,25.98
2022-12-31T01:02:38.049Z,25.98
2022-12-31T01:02:47.909Z,25.98
2022-12-31T01:02:57.911Z,25.99
2022-12-31T01:03:08.036Z,25.99
2022-12-31T01:03:17.983Z,25.99
2022-12-31T01:03:28.040Z,25.99
2022-12-31T01:03:38.071Z,25.99
2022-12-31T01:03:48.071Z,25.99
2022-12-31T01:03:58.074Z,25.99
2022-12-31T01:04:08.195Z,26.00
2022-12-31T01:04:18.206Z,26.00
2022-12-31T01:04:28.215Z,26.00
2022-12-31T01:04:38.240Z,26.00
2022-12-31T01:04:48.239Z,26.00
2022-12-31T01:04:58.246Z,26.00
2022-12-31T01:05:08.509Z,26.00
2022-12-31T01:05:18.574Z,26.00
2022-12-31T01:05:28.584Z,26.00
2022-12-31T01:05:38.580Z,26.00
2022-12-31T01:05:48.701Z,26.00
2022-12-31T01:05:58.709Z,26.01
2022-12-31T01:06:08.718Z,26.01
2022-12-31T01:06:18.736Z,26.00
2022-12-31T01:06:28.748Z,26.01
2022-12-31T01:06:38.747Z,26.00
2022-12-31T01:06:49.015Z,25.99
2022-12-31T01:06:59.026Z,26.00
2022-12-31T01:07:09.141Z,26.00
2022-12-31T01:07:19.403Z,26.00
2022-12-31T01:07:29.402Z,26.00
2022-12-31T01:07:39.407Z,26.00
2022-12-31T01:07:49.775Z,26.00
2022-12-31T01:07:59.775Z,26.00
2022-12-31T01:08:09.893Z,26.01
2022-12-31T01:08:20.156Z,26.01
2022-12-31T01:08:30.168Z,26.02
2022-12-31T01:08:40.175Z,26.02
2022-12-31T01:08:50.186Z,26.02
2022-12-31T01:09:00.176Z,26.04
2022-12-31T01:09:10.301Z,26.03
2022-12-31T01:09:20.311Z,26.02
2022-12-31T01:09:30.321Z,26.02
2022-12-31T01:09:40.327Z,26.02
2022-12-31T01:09:50.348Z,26.02
2022-12-31T01:10:00.600Z,26.03
2022-12-31T01:10:10.721Z,26.03
2022-12-31T01:10:20.719Z,26.03
2022-12-31T01:10:30.984Z,26.03
2022-12-31T01:10:40.965Z,26.04
2022-12-31T01:10:50.970Z,26.04
2022-12-31T01:11:00.972Z,26.03
2022-12-31T01:11:10.982Z,26.04
2022-12-31T01:11:20.993Z,26.04
2022-12-31T01:11:30.977Z,26.03
2022-12-31T01:11:40.995Z,26.04
2022-12-31T01:11:51.008Z,26.05
2022-12-31T01:12:01.024Z,26.06
2022-12-31T01:12:11.018Z,26.05
2022-12-31T01:12:21.025Z,26.06
2022-12-31T01:12:31.152Z,26.06
2022-12-31T01:12:41.145Z,26.06
2022-12-31T01:12:51.274Z,26.06
2022-12-31T01:13:01.267Z,26.06
2022-12-31T01:13:11.388Z,26.05
2022-12-31T01:13:21.423Z,26.06
2022-12-31T01:13:31.423Z,26.06
2022-12-31T01:13:41.427Z,26.05
2022-12-31T01:13:51.816Z,26.05
2022-12-31T01:14:01.820Z,26.05
2022-12-31T01:14:11.813Z,26.06
2022-12-31T01:14:21.817Z,26.05
2022-12-31T01:14:31.829Z,26.06
2022-12-31T01:14:41.818Z,26.06
2022-12-31T01:14:51.945Z,26.06
2022-12-31T01:15:01.976Z,26.05
2022-12-31T01:15:11.958Z,26.04
2022-12-31T01:15:21.960Z,26.06
2022-12-31T01:15:32.260Z,26.05
2022-12-31T01:15:42.289Z,26.05
2022-12-31T01:15:52.376Z,26.05
2022-12-31T01:16:02.432Z,26.06
2022-12-31T01:16:12.491Z,26.06
2022-12-31T01:16:22.559Z,26.07
2022-12-31T01:16:32.549Z,26.07
2022-12-31T01:16:42.567Z,26.06
2022-12-31T01:16:52.727Z,26.06
2022-12-31T01:17:02.716Z,26.06
2022-12-31T01:17:12.966Z,26.05
2022-12-31T01:17:22.975Z,26.05
2022-12-31T01:17:32.974Z,26.05
2022-12-31T01:17:42.977Z,26.06
2022-12-31T01:17:52.983Z,26.07
2022-12-31T01:18:02.992Z,26.07
2022-12-31T01:18:12.982Z,26.07
2022-12-31T01:18:22.984Z,26.08
2022-12-31T01:18:33.103Z,26.08
2022-12-31T01:18:43.106Z,26.08
2022-12-31T01:18:53.385Z,26.08
2022-12-31T01:19:03.381Z,26.09
2022-12-31T01:19:13.397Z,26.08
2022-12-31T01:19:23.394Z,26.09
2022-12-31T01:19:33.543Z,26.08
2022-12-31T01:19:43.558Z,26.08
2022-12-31T01:19:53.558Z,26.08
2022-12-31T01:20:03.556Z,26.08
2022-12-31T01:20:13.557Z,26.09
2022-12-31T01:20:23.568Z,26.09
2022-12-31T01:20:33.813Z,26.08
2022-12-31T01:20:43.832Z,26.09
2022-12-31T01:20:53.826Z,26.09
2022-12-31T01:21:03.834Z,26.08
2022-12-31T01:21:13.849Z,26.08
2022-12-31T01:21:23.865Z,26.08
2022-12-31T01:21:33.870Z,26.07
2022-12-31T01:21:43.893Z,26.07
2022-12-31T01:21:53.912Z,26.07
2022-12-31T01:22:03.905Z,26.07
2022-12-31T01:22:14.282Z,26.08
2022-12-31T01:22:24.279Z,26.09
2022-12-31T01:22:34.296Z,26.09
2022-12-31T01:22:44.290Z,26.09
2022-12-31T01:22:54.425Z,26.10
2022-12-31T01:23:04.420Z,26.10
2022-12-31T01:23:14.434Z,26.09
2022-12-31T01:23:24.438Z,26.09
2022-12-31T01:23:34.456Z,26.08
2022-12-31T01:23:44.460Z,26.08
2022-12-31T01:23:54.737Z,26.08
2022-12-31T01:24:04.732Z,26.08
2022-12-31T01:24:14.843Z,26.08
2022-12-31T01:24:25.104Z,26.08
2022-12-31T01:24:35.118Z,26.08
2022-12-31T01:24:45.119Z,26.08
2022-12-31T01:24:55.124Z,26.09
2022-12-31T01:25:05.135Z,26.09
2022-12-31T01:25:15.144Z,26.10
2022-12-31T01:25:25.158Z,26.10
2022-12-31T01:25:35.182Z,26.10
2022-12-31T01:25:45.182Z,26.10
2022-12-31T01:25:55.187Z,26.10
2022-12-31T01:26:05.212Z,26.10
2022-12-31T01:26:15.216Z,26.10
2022-12-31T01:26:25.212Z,26.11
2022-12-31T01:26:35.233Z,26.10
2022-12-31T01:26:45.249Z,26.10
2022-12-31T01:26:55.254Z,26.09
2022-12-31T01:27:05.259Z,26.09
2022-12-31T01:27:15.266Z,26.09
2022-12-31T01:27:25.287Z,26.08
2022-12-31T01:27:35.290Z,26.08
2022-12-31T01:27:45.300Z,26.09
2022-12-31T01:27:55.311Z,26.10
2022-12-31T01:28:05.314Z,26.09
2022-12-31T01:28:15.331Z,26.10
2022-12-31T01:28:25.325Z,26.10
2022-12-31T01:28:35.453Z,26.10
2022-12-31T01:28:45.456Z,26.10
2022-12-31T01:28:55.466Z,26.11
2022-12-31T01:29:05.482Z,26.12
2022-12-31T01:29:15.484Z,26.10
2022-12-31T01:29:25.499Z,26.10
2022-12-31T01:29:35.769Z,26.10
2022-12-31T01:29:45.769Z,26.11
2022-12-31T01:29:55.916Z,26.10
2022-12-31T01:30:06.195Z,26.09
2022-12-31T01:30:16.194Z,26.10
2022-12-31T01:30:26.189Z,26.10
2022-12-31T01:30:36.232Z,26.10
2022-12-31T01:30:46.268Z,26.11
2022-12-31T01:30:56.358Z,26.11
2022-12-31T01:31:06.450Z,26.11
2022-12-31T01:31:16.552Z,26.12
2022-12-31T01:31:26.649Z,26.11
2022-12-31T01:31:36.672Z,26.10
2022-12-31T01:31:46.813Z,26.11
2022-12-31T01:31:56.928Z,26.11
2022-12-31T01:32:06.930Z,26.10
2022-12-31T01:32:17.176Z,26.11
2022-12-31T01:32:27.179Z,26.10
2022-12-31T01:32:37.181Z,26.10
2022-12-31T01:32:47.215Z,26.09
2022-12-31T01:32:57.193Z,26.09
2022-12-31T01:33:07.191Z,26.10
2022-12-31T01:33:17.321Z,26.10
2022-12-31T01:33:27.327Z,26.10
2022-12-31T01:33:37.338Z,26.10
2022-12-31T01:33:47.366Z,26.11
2022-12-31T01:33:57.621Z,26.12
2022-12-31T01:34:07.622Z,26.11
2022-12-31T01:34:17.746Z,26.12
2022-12-31T01:34:28.015Z,26.12
2022-12-31T01:34:38.144Z,26.12
2022-12-31T01:34:48.146Z,26.12
2022-12-31T01:34:58.406Z,26.12
2022-12-31T01:35:08.432Z,26.11
2022-12-31T01:35:18.416Z,26.11
2022-12-31T01:35:28.415Z,26.11
2022-12-31T01:35:38.549Z,26.11
2022-12-31T01:35:48.581Z,26.10
2022-12-31T01:35:58.578Z,26.11
2022-12-31T01:36:08.595Z,26.11
2022-12-31T01:36:25.052Z,26.12
2022-12-31T01:36:28.603Z,26.07
2022-12-31T01:36:38.756Z,26.09
2022-12-31T01:36:48.733Z,26.09
2022-12-31T01:36:58.743Z,26.10
2022-12-31T01:37:08.745Z,26.10
2022-12-31T01:37:18.899Z,26.10
2022-12-31T01:37:28.916Z,26.10
2022-12-31T01:37:38.919Z,26.11
2022-12-31T01:37:49.171Z,26.10
2022-12-31T01:37:59.293Z,26.10
2022-12-31T01:38:09.303Z,26.09
2022-12-31T01:38:19.552Z,26.10
2022-12-31T01:38:29.568Z,26.10
2022-12-31T01:38:39.572Z,26.11
2022-12-31T01:38:49.582Z,26.11
2022-12-31T01:38:59.596Z,26.11
2022-12-31T01:39:09.605Z,26.12
2022-12-31T01:39:19.602Z,26.12
2022-12-31T01:39:29.604Z,26.14
2022-12-31T01:39:39.731Z,26.14
2022-12-31T01:39:49.741Z,26.15
2022-12-31T01:40:00.001Z,26.14
2022-12-31T01:40:10.023Z,26.15
2022-12-31T01:40:20.131Z,26.14
2022-12-31T01:40:30.384Z,26.14
2022-12-31T01:40:40.504Z,26.14
2022-12-31T01:40:50.517Z,26.14
2022-12-31T01:41:00.765Z,26.13
2022-12-31T01:41:10.751Z,26.14
2022-12-31T01:41:20.877Z,26.13
2022-12-31T01:41:31.146Z,26.14
2022-12-31T01:41:41.259Z,26.14
2022-12-31T01:41:51.267Z,26.15
2022-12-31T01:42:01.525Z,26.14
2022-12-31T01:42:11.541Z,26.15
2022-12-31T01:42:21.536Z,26.15
2022-12-31T01:42:31.535Z,26.14
2022-12-31T01:42:41.672Z,26.15
2022-12-31T01:42:51.706Z,26.14
2022-12-31T01:43:01.700Z,26.15
2022-12-31T01:43:11.712Z,26.16
2022-12-31T01:43:21.731Z,26.15
2022-12-31T01:43:31.722Z,26.16
2022-12-31T01:43:41.994Z,26.15
2022-12-31T01:43:52.116Z,26.16
2022-12-31T01:44:02.127Z,26.16
2022-12-31T01:44:12.463Z,26.16
2022-12-31T01:44:22.495Z,26.16
2022-12-31T01:44:32.621Z,26.17
2022-12-31T01:44:42.751Z,26.17
2022-12-31T01:44:52.881Z,26.16
2022-12-31T01:45:02.880Z,26.16
2022-12-31T01:45:13.181Z,26.17
2022-12-31T01:45:23.179Z,26.17
2022-12-31T01:45:33.179Z,26.17
2022-12-31T01:45:43.200Z,26.17
2022-12-31T01:45:53.284Z,26.17
2022-12-31T01:46:03.291Z,26.17
2022-12-31T01:46:13.365Z,26.17
2022-12-31T01:46:23.410Z,26.17
2022-12-31T01:46:33.504Z,26.18
2022-12-31T01:46:43.556Z,26.18
2022-12-31T01:46:53.823Z,26.18
2022-12-31T01:47:03.831Z,26.17
2022-12-31T01:47:13.952Z,26.17
2022-12-31T01:47:24.208Z,26.18
2022-12-31T01:47:34.344Z,26.18
2022-12-31T01:47:44.342Z,26.18
2022-12-31T01:47:54.602Z,26.19
2022-12-31T01:48:04.617Z,26.19
2022-12-31T01:48:14.604Z,26.19
2022-12-31T01:48:24.612Z,26.19
2022-12-31T01:48:34.640Z,26.20
2022-12-31T01:48:44.656Z,26.20
2022-12-31T01:48:54.653Z,26.20
2022-12-31T01:49:04.685Z,26.20
2022-12-31T01:49:14.702Z,26.19
2022-12-31T01:49:24.697Z,26.19
2022-12-31T01:49:34.690Z,26.19
2022-12-31T01:49:44.714Z,26.20
2022-12-31T01:49:54.719Z,26.20
2022-12-31T01:50:04.703Z,26.20
2022-12-31T01:50:14.713Z,26.19
2022-12-31T01:50:24.733Z,26.20
2022-12-31T01:50:34.739Z,26.19
2022-12-31T01:50:44.748Z,26.20
2022-12-31T01:50:54.766Z,26.21
2022-12-31T01:51:04.765Z,26.20
2022-12-31T01:51:14.779Z,26.20
2022-12-31T01:51:24.783Z,26.20
2022-12-31T01:51:34.810Z,26.20
2022-12-31T01:51:44.805Z,26.20
2022-12-31T01:51:54.819Z,26.20
2022-12-31T01:52:04.841Z,26.20
2022-12-31T01:52:14.843Z,26.20
2022-12-31T01:52:24.854Z,26.20
2022-12-31T01:52:34.869Z,26.20
2022-12-31T01:52:44.867Z,26.19
2022-12-31T01:52:54.883Z,26.20
2022-12-31T01:53:05.003Z,26.19
2022-12-31T01:53:14.998Z,26.20
2022-12-31T01:53:25.035Z,26.20
2022-12-31T01:53:37.259Z,26.21
2022-12-31T01:53:45.137Z,26.14
2022-12-31T01:53:55.152Z,26.17
2022-12-31T01:54:05.250Z,26.17
2022-12-31T01:54:15.259Z,26.18
2022-12-31T01:54:25.413Z,26.18
2022-12-31T01:54:35.402Z,26.18
2022-12-31T01:54:45.411Z,26.19
2022-12-31T01:54:55.479Z,26.18
2022-12-31T01:55:05.501Z,26.18
2022-12-31T01:55:15.603Z,26.19
2022-12-31T01:55:25.614Z,26.19
2022-12-31T01:55:35.612Z,26.19
2022-12-31T01:55:45.632Z,26.19
2022-12-31T01:55:55.625Z,26.20
2022-12-31T01:56:05.880Z,26.19
2022-12-31T01:56:16.012Z,26.19
2022-12-31T01:56:26.020Z,26.20
2022-12-31T01:56:36.291Z,26.20
2022-12-31T01:56:46.282Z,26.20
2022-12-31T01:56:56.412Z,26.19
2022-12-31T01:57:06.660Z,26.20
2022-12-31T01:57:16.804Z,26.20
2022-12-31T01:57:26.798Z,26.21
2022-12-31T01:57:37.059Z,26.21
2022-12-31T01:57:47.082Z,26.21
2022-12-31T01:57:57.082Z,26.22
2022-12-31T01:58:07.084Z,26.21
2022-12-31T01:58:17.109Z,26.22
2022-12-31T01:58:27.117Z,26.21
2022-12-31T01:58:37.114Z,26.22
2022-12-31T01:58:47.125Z,26.21
2022-12-31T01:58:57.141Z,26.22
2022-12-31T01:59:07.149Z,26.21
2022-12-31T01:59:17.153Z,26.20
2022-12-31T01:59:27.185Z,26.20
2022-12-31T01:59:37.171Z,26.20
2022-12-31T01:59:47.199Z,26.20
2022-12-31T01:59:57.202Z,26.20
2022-12-31T02:00:07.790Z,26.21
2022-12-31T02:00:17.292Z,26.20
2022-12-31T02:00:27.284Z,26.21
2022-12-31T02:00:37.402Z,26.21
2022-12-31T02:00:47.405Z,26.21
2022-12-31T02:00:57.474Z,26.21
2022-12-31T02:01:07.519Z,26.21
2022-12-31T02:01:17.696Z,26.21
2022-12-31T02:01:27.778Z,26.21
2022-12-31T02:01:38.003Z,26.21
2022-12-31T02:01:48.090Z,26.21
2022-12-31T02:01:58.148Z,26.22
2022-12-31T02:02:08.139Z,26.21
2022-12-31T02:02:18.314Z,26.22
2022-12-31T02:02:28.258Z,26.22
2022-12-31T02:02:38.257Z,26.24
2022-12-31T02:02:48.375Z,26.25
2022-12-31T02:02:58.346Z,26.25
2022-12-31T02:03:08.464Z,26.26
2022-12-31T02:03:18.721Z,26.26
2022-12-31T02:03:28.792Z,26.27
2022-12-31T02:03:38.815Z,26.28
2022-12-31T02:03:49.102Z,26.27
2022-12-31T02:03:59.093Z,26.28
2022-12-31T02:04:09.090Z,26.28
2022-12-31T02:04:19.092Z,26.28
2022-12-31T02:04:29.096Z,26.28
2022-12-31T02:04:39.232Z,26.27
2022-12-31T02:04:49.235Z,26.28
2022-12-31T02:04:59.246Z,26.28
2022-12-31T02:05:09.252Z,26.28
2022-12-31T02:05:19.243Z,26.27
2022-12-31T02:05:29.526Z,26.27
2022-12-31T02:05:39.512Z,26.27
2022-12-31T02:05:49.522Z,26.25
2022-12-31T02:05:59.532Z,26.25
2022-12-31T02:06:09.526Z,26.25
2022-12-31T02:06:19.525Z,26.25
2022-12-31T02:06:29.522Z,26.25
2022-12-31T02:06:39.540Z,26.26
2022-12-31T02:06:49.534Z,26.26
2022-12-31T02:06:59.655Z,26.27
2022-12-31T02:07:09.916Z,26.27
2022-12-31T02:07:20.031Z,26.26
2022-12-31T02:07:30.030Z,26.28
2022-12-31T02:07:40.281Z,26.28
2022-12-31T02:07:50.296Z,26.28
2022-12-31T02:08:00.286Z,26.28
2022-12-31T02:08:10.296Z,26.27
2022-12-31T02:08:20.308Z,26.27
2022-12-31T02:08:30.310Z,26.26
2022-12-31T02:08:42.277Z,26.25
2022-12-31T02:08:50.371Z,26.23
2022-12-31T02:09:00.484Z,26.23
2022-12-31T02:09:10.492Z,26.25
2022-12-31T02:09:20.608Z,26.25
2022-12-31T02:09:30.611Z,26.25
2022-12-31T02:09:40.735Z,26.25
2022-12-31T02:09:50.737Z,26.25
2022-12-31T02:10:00.743Z,26.25